Airfield :
LOGIN :

Register | Disclaimer

   EN    FR    IT 

 










Legend :    VFR   Marginal VFR   IFR   Intensive IFR   Very Intensive IFR
Visi :
Ceiling :
>= 8 km
>= 3000ft
5 to 8 km
1000 to 3000 ft
1500m to 5 km
500 to 1000 ft
800 to 1500m
200 to 500 ft
< 800m
< 200 ft
Symbols :   Thunderstorms  Fog  Heavy snow  Heavy precipitations  Wind > 20 kt
SIGMETs :     Misc.  Thunderstorms  Icing  Turbulence  Mountain Waves  Volcanic Ashes







- Airport Elevation : 235 ft
- IATA code : BZG


EPBY - Bydgoszcz

CURRENT METAR :
  • 250830Z 08006KT CAVOK 21/09 Q1022

EXPIRED METARs :
  • 250800Z 06007KT 040V120 CAVOK 20/09 Q1022
  • 250730Z 07007KT 030V110 CAVOK 19/09 Q1023
  • 250700Z 08008KT 040V100 CAVOK 18/08 Q1023
  • 250630Z 07009KT 050V110 CAVOK 17/07 Q1023
  • 250600Z 06006KT 010V100 CAVOK 16/07 Q1023

TAF TAF EPBY
Valid from the 25 at 06:00 until the 26 at 06:00 UTC


250530Z 2506/2606 05010KT CAVOK
TEMPO 2509/2521 SHRA BKN030CB
PROB40
TEMPO 2511/2519 VRB15G30KT 3000 TSRA
BECMG 2520/2522 VRB03KT
No reported NOTAMs for that airfield.



MET'MAP, your aeronautical weather chart ! - Copyright ORBIFLY December 2007 - Disclaimer

ORBIFLY MET'MAP TEAM :

Programming & Development : Alexandra Zaïnal
Concept & Development : Baudouin d'Aumeries
Co-Development & Prog : Marc-Olivier Méhu
Technical & hardware support : Manuel Goepfert

Contact : metmap@orbifly.com




SOURCES & CREDITS :

   NOAA